Time,TemperatureF,DewpointF,PressureIn,WindDirection,WindDirectionDegrees,WindSpeedMPH,WindSpeedGustMPH,Humidity,HourlyPrecipIn,Conditions,Clouds,dailyrainin,SoftwareType,DateUTC
2013-01-28 00:00:00,24.0,16.0,25.04,West,270,0.0,0.0,71,0.00,,,0.00,VWS V13.01,2013-01-28 05:00:00,
2013-01-28 01:00:00,23.3,15.9,25.99,West,270,0.0,0.0,73,0.00,,,0.00,VWS V13.01,2013-01-28 06:00:00,
2013-01-28 02:00:00,24.0,15.6,24.53,West,270,0.0,1.0,70,0.00,,,0.00,VWS V13.01,2013-01-28 07:00:00,
2013-01-28 03:00:00,24.3,16.3,22.79,West,270,0.0,0.0,71,0.00,,,0.00,VWS V13.01,2013-01-28 08:00:00,
2013-01-28 04:00:00,24.5,16.5,22.48,West,270,0.0,0.0,71,0.00,,,0.00,VWS V13.01,2013-01-28 09:00:00,
2013-01-28 05:00:00,25.7,17.3,22.48,West,270,0.0,0.0,70,0.00,,,0.00,VWS V13.01,2013-01-28 10:00:00,
2013-01-28 06:00:00,26.4,18.0,22.26,West,270,0.0,0.0,70,0.00,,,0.00,VWS V13.01,2013-01-28 11:00:00,
2013-01-28 07:00:00,27.2,18.4,18.65,West,270,0.0,1.0,69,0.00,,,0.00,VWS V13.01,2013-01-28 12:00:00,
2013-01-28 08:00:00,27.9,19.7,20.06,West,270,0.0,0.0,71,0.00,,,0.00,VWS V13.01,2013-01-28 13:00:00,
2013-01-28 09:00:00,29.0,22.1,23.90,West,270,0.0,4.0,75,0.00,,,0.00,VWS V13.01,2013-01-28 14:00:00,
2013-01-28 10:00:00,29.1,25.2,18.07,West,270,0.0,4.0,85,0.00,,,0.00,VWS V13.01,2013-01-28 15:00:00,
2013-01-28 11:00:00,30.0,26.9,20.83,South,180,1.0,7.0,88,0.00,,,0.00,VWS V13.01,2013-01-28 16:00:00,
2013-01-28 12:00:00,31.6,28.5,21.56,WSW,248,2.0,8.0,88,0.00,,,0.00,VWS V13.01,2013-01-28 17:00:00,
2013-01-28 13:00:00,32.2,29.6,22.31,SSE,158,2.0,8.0,90,0.00,,,0.00,VWS V13.01,2013-01-28 18:00:00,
2013-01-28 14:00:00,32.6,30.0,22.25,SW,225,1.0,6.0,90,0.00,,,0.00,VWS V13.01,2013-01-28 19:00:00,
2013-01-28 15:00:00,32.9,30.6,22.25,SSE,158,1.0,4.0,91,0.00,,,0.00,VWS V13.01,2013-01-28 20:00:00,
2013-01-28 16:00:00,33.1,31.0,20.81,SSW,202,0.0,5.0,92,0.00,,,0.03,VWS V13.01,2013-01-28 21:00:00,
2013-01-28 17:00:00,33.3,31.5,20.80,SW,225,1.0,6.0,93,0.00,,,0.03,VWS V13.01,2013-01-28 22:00:00,
2013-01-28 18:00:00,33.5,31.7,19.31,WSW,248,2.0,7.0,93,0.00,,,0.03,VWS V13.01,2013-01-28 23:00:00,
2013-01-28 19:00:00,33.8,32.0,21.52,West,270,2.0,7.0,93,0.00,,,0.03,VWS V13.01,2013-01-29 00:00:00,
2013-01-28 20:00:00,33.9,32.1,22.25,SW,225,3.0,8.0,93,0.00,,,0.03,VWS V13.01,2013-01-29 01:00:00,
2013-01-28 21:00:00,34.1,32.6,21.51,WSW,248,2.0,9.0,94,0.00,,,0.03,VWS V13.01,2013-01-29 02:00:00,
2013-01-28 22:00:00,34.4,32.9,19.31,West,270,3.0,7.0,94,0.00,,,0.03,VWS V13.01,2013-01-29 03:00:00,
2013-01-28 23:00:00,34.4,32.6,19.33,West,270,2.0,10.0,93,0.00,,,0.03,VWS V13.01,2013-01-29 04:00:00,